Time;durP1;ratioP1;P1;durP2;ratioP2;P2;SDS_P1;SDS_P2;PMS_P1;PMS_P2;Temp;Humidity;BMP_temperature;BMP_pressure;BME280_temperature;BME280_humidity;BME280_pressure;Samples;Min_cycle;Max_cycle;Signal;HPM_P1;HPM_P2
2022/11/04 00:01:39;;;;;;;4.40;3.38;;;;;;;;;;5063662;28;20203;-72
2022/11/04 00:04:05;;;;;;;4.28;3.50;;;;;;;;;;5063428;28;20197;-72
2022/11/04 00:06:32;;;;;;;3.50;3.30;;;;;;;;;;5063341;28;20528;-72
2022/11/04 00:08:58;;;;;;;3.75;3.42;;;;;;;;;;5063105;28;20220;-71
2022/11/04 00:14:10;;;;;;;4.30;3.90;;;;;;;;;;5063232;28;20489;-71
2022/11/04 00:19:21;;;;;;;4.00;3.67;;;;;;;;;;5062000;28;20486;-72
2022/11/04 00:30:00;;;;;;;3.60;3.30;;;;;;;;;;5062589;28;20223;-72
2022/11/04 00:35:13;;;;;;;3.38;3.17;;;;;;;;;;5062662;28;20223;-71
2022/11/04 00:37:40;;;;;;;3.08;2.85;;;;;;;;;;5062671;28;20311;-71
2022/11/04 00:40:07;;;;;;;3.60;3.30;;;;;;;;;;5062908;28;20204;-72
2022/11/04 00:42:33;;;;;;;3.67;3.35;;;;;;;;;;5062681;28;20201;-72
2022/11/04 00:44:59;;;;;;;3.05;2.90;;;;;;;;;;5062602;28;20251;-71
2022/11/04 00:47:25;;;;;;;3.70;3.00;;;;;;;;;;5062571;28;20266;-71
2022/11/04 00:49:52;;;;;;;4.20;3.25;;;;;;;;;;5062229;28;20201;-72
2022/11/04 00:52:19;;;;;;;3.00;2.90;;;;;;;;;;5062413;28;20288;-71
2022/11/04 00:54:46;;;;;;;4.05;3.05;;;;;;;;;;5062487;28;20197;-72
2022/11/04 00:57:12;;;;;;;2.95;2.75;;;;;;;;;;5062356;28;20410;-72
2022/11/04 00:59:39;;;;;;;2.95;2.75;;;;;;;;;;5062427;28;20204;-72
2022/11/04 01:02:05;;;;;;;2.65;2.50;;;;;;;;;;5062442;28;20224;-72
2022/11/04 01:04:32;;;;;;;3.17;2.97;;;;;;;;;;5062571;28;20197;-72
2022/11/04 01:06:58;;;;;;;2.72;2.45;;;;;;;;;;5062412;28;20255;-72
2022/11/04 01:09:25;;;;;;;3.70;3.40;;;;;;;;;;5062052;28;20480;-72
2022/11/04 01:11:52;;;;;;;3.35;3.10;;;;;;;;;;5062210;28;20374;-72
2022/11/04 01:14:18;;;;;;;3.13;3.03;;;;;;;;;;5062291;28;20197;-72
2022/11/04 01:16:44;;;;;;;3.13;2.83;;;;;;;;;;5062389;28;20387;-72
2022/11/04 01:19:11;;;;;;;2.67;2.47;;;;;;;;;;5061654;28;20205;-72
2022/11/04 01:21:37;;;;;;;4.47;2.60;;;;;;;;;;5062018;28;20512;-72
2022/11/04 01:24:04;;;;;;;2.40;2.30;;;;;;;;;;5061914;28;20210;-72
2022/11/04 01:26:32;;;;;;;3.15;2.97;;;;;;;;;;5061891;28;20189;-72
2022/11/04 01:28:58;;;;;;;3.13;2.92;;;;;;;;;;5061810;28;20221;-72
2022/11/04 01:31:26;;;;;;;3.38;3.10;;;;;;;;;;5061844;28;20251;-72
2022/11/04 01:33:53;;;;;;;3.00;2.80;;;;;;;;;;5062027;28;20197;-71
2022/11/04 01:36:19;;;;;;;2.90;2.80;;;;;;;;;;5061814;28;20197;-71
2022/11/04 01:38:46;;;;;;;2.88;2.78;;;;;;;;;;5061419;28;20197;-71
2022/11/04 01:41:17;;;;;;;2.92;2.83;;;;;;;;;;5062034;28;20205;-71
2022/11/04 01:43:45;;;;;;;3.28;2.95;;;;;;;;;;5062006;28;20259;-71
2022/11/04 01:46:13;;;;;;;2.90;2.67;;;;;;;;;;5061809;28;20198;-71
2022/11/04 01:48:39;;;;;;;2.47;2.38;;;;;;;;;;5061894;28;20220;-71
2022/11/04 01:51:06;;;;;;;3.22;2.05;;;;;;;;;;5061712;28;20204;-71
2022/11/04 01:53:33;;;;;;;2.58;2.40;;;;;;;;;;5061722;28;20203;-71
2022/11/04 01:56:02;;;;;;;2.65;2.13;;;;;;;;;;5061666;28;20197;-72
2022/11/04 01:58:31;;;;;;;2.58;2.38;;;;;;;;;;5061543;28;20431;-72
2022/11/04 02:00:58;;;;;;;2.50;2.30;;;;;;;;;;5061954;28;20204;-72
2022/11/04 02:03:28;;;;;;;2.65;1.92;;;;;;;;;;5061428;28;20197;-71
2022/11/04 02:05:54;;;;;;;2.08;1.90;;;;;;;;;;5061854;28;20197;-70
2022/11/04 02:08:22;;;;;;;2.17;2.17;;;;;;;;;;5061414;28;20227;-70
2022/11/04 02:10:50;;;;;;;2.42;2.25;;;;;;;;;;5061660;28;20197;-70
2022/11/04 02:13:15;;;;;;;2.42;2.20;;;;;;;;;;5061673;28;20426;-70
2022/11/04 02:15:45;;;;;;;1.75;1.65;;;;;;;;;;5061542;28;20199;-70
2022/11/04 02:18:21;;;;;;;1.77;1.55;;;;;;;;;;5061173;28;20227;-70
2022/11/04 02:21:00;;;;;;;2.47;1.70;;;;;;;;;;5061841;28;20407;-70
2022/11/04 02:23:36;;;;;;;1.20;1.20;;;;;;;;;;5060853;28;20205;-70
2022/11/04 02:26:21;;;;;;;1.92;1.83;;;;;;;;;;5061344;28;20197;-70
2022/11/04 02:29:06;;;;;;;2.67;1.70;;;;;;;;;;5061186;28;20229;-70
2022/11/04 02:31:35;;;;;;;1.42;1.40;;;;;;;;;;5061351;28;20212;-71
2022/11/04 02:34:05;;;;;;;1.92;1.83;;;;;;;;;;5061344;28;20197;-71
2022/11/04 02:36:35;;;;;;;1.80;1.70;;;;;;;;;;5061257;28;20197;-71
2022/11/04 02:39:07;;;;;;;1.42;1.33;;;;;;;;;;5060881;28;20268;-72
2022/11/04 02:41:36;;;;;;;1.52;1.42;;;;;;;;;;5061212;28;20227;-71
2022/11/04 02:44:08;;;;;;;2.08;1.45;;;;;;;;;;5063680;28;20272;-71
2022/11/04 02:46:36;;;;;;;1.67;1.60;;;;;;;;;;5064741;28;20197;-71
2022/11/04 02:49:05;;;;;;;1.52;1.52;;;;;;;;;;5064245;28;20496;-71
2022/11/04 02:51:35;;;;;;;2.55;1.40;;;;;;;;;;5064775;28;20203;-71
2022/11/04 02:54:04;;;;;;;1.30;1.30;;;;;;;;;;5064619;28;20211;-71
2022/11/04 02:56:31;;;;;;;1.67;1.40;;;;;;;;;;5064708;28;20197;-71
2022/11/04 02:59:00;;;;;;;1.35;1.33;;;;;;;;;;5064376;28;20535;-71
2022/11/04 03:01:29;;;;;;;1.23;1.23;;;;;;;;;;5064567;28;20201;-71
2022/11/04 03:04:00;;;;;;;1.92;1.40;;;;;;;;;;5064496;28;20208;-71
2022/11/04 03:06:27;;;;;;;1.17;1.17;;;;;;;;;;5064473;28;20211;-71
2022/11/04 03:08:54;;;;;;;1.60;1.50;;;;;;;;;;5064056;28;20213;-71
2022/11/04 03:11:22;;;;;;;1.70;1.60;;;;;;;;;;5064135;28;20421;-71
2022/11/04 03:13:50;;;;;;;1.48;1.48;;;;;;;;;;5064195;28;20387;-71
2022/11/04 03:16:19;;;;;;;2.72;1.50;;;;;;;;;;5064062;28;20201;-71
2022/11/04 03:18:52;;;;;;;1.35;1.33;;;;;;;;;;5063829;28;20202;-71
2022/11/04 03:21:20;;;;;;;2.03;1.83;;;;;;;;;;5063989;28;20197;-71
2022/11/04 03:23:47;;;;;;;1.52;1.52;;;;;;;;;;5063890;28;20197;-71
2022/11/04 03:26:18;;;;;;;1.60;1.50;;;;;;;;;;5063656;28;20205;-72
2022/11/04 03:28:46;;;;;;;2.92;1.50;;;;;;;;;;5063892;28;20381;-71
2022/11/04 03:31:16;;;;;;;1.40;1.40;;;;;;;;;;5064162;28;20208;-71
2022/11/04 03:33:45;;;;;;;1.30;1.20;;;;;;;;;;5063966;28;20205;-71
2022/11/04 03:36:11;;;;;;;0.90;0.90;;;;;;;;;;5064046;28;20365;-71
2022/11/04 03:38:39;;;;;;;1.20;1.20;;;;;;;;;;5063657;28;20200;-71
2022/11/04 03:41:08;;;;;;;1.65;1.55;;;;;;;;;;5063747;28;20197;-71
2022/11/04 03:43:35;;;;;;;1.48;0.80;;;;;;;;;;5064066;28;20197;-71
2022/11/04 03:46:02;;;;;;;1.10;1.10;;;;;;;;;;5063818;28;20201;-71
2022/11/04 03:48:29;;;;;;;1.40;1.20;;;;;;;;;;5063468;28;20221;-71
2022/11/04 03:50:55;;;;;;;1.10;1.10;;;;;;;;;;5063859;28;20205;-71
2022/11/04 03:53:23;;;;;;;1.00;1.00;;;;;;;;;;5063395;28;20205;-71
2022/11/04 03:56:00;;;;;;;5.22;1.42;;;;;;;;;;5063291;28;20197;-71
2022/11/04 03:58:31;;;;;;;1.30;1.30;;;;;;;;;;5063614;28;20203;-71
2022/11/04 04:01:00;;;;;;;1.20;1.10;;;;;;;;;;5063755;28;20619;-71
2022/11/04 04:03:30;;;;;;;1.35;1.25;;;;;;;;;;5063280;28;20197;-71
2022/11/04 04:05:59;;;;;;;1.85;1.10;;;;;;;;;;5063288;28;20201;-71
2022/11/04 04:08:31;;;;;;;1.13;1.02;;;;;;;;;;5062960;28;20235;-71
2022/11/04 04:11:02;;;;;;;1.75;1.20;;;;;;;;;;5063482;28;20522;-71
2022/11/04 04:13:34;;;;;;;1.20;1.10;;;;;;;;;;5063596;28;20268;-71
2022/11/04 04:16:02;;;;;;;1.20;1.20;;;;;;;;;;5063135;28;20197;-71
2022/11/04 04:18:31;;;;;;;1.40;1.17;;;;;;;;;;5063058;28;20500;-71
2022/11/04 04:20:59;;;;;;;1.17;1.17;;;;;;;;;;5062980;28;20496;-71
2022/11/04 04:29:00;;;;;;;1.75;1.20;;;;;;;;;;5062588;28;20227;-71
2022/11/04 04:34:11;;;;;;;1.67;1.58;;;;;;;;;;5062838;28;20227;-71
2022/11/04 04:36:41;;;;;;;1.42;1.42;;;;;;;;;;5062837;28;20193;-71
2022/11/04 04:47:23;;;;;;;1.42;1.33;;;;;;;;;;5053798;28;20186;-71
2022/11/04 04:49:49;;;;;;;3.50;1.20;;;;;;;;;;5062887;28;20203;-71
2022/11/04 04:52:16;;;;;;;1.27;1.27;;;;;;;;;;5062614;28;20197;-71
2022/11/04 04:54:43;;;;;;;1.15;1.15;;;;;;;;;;5062848;28;20561;-71
2022/11/04 04:57:11;;;;;;;1.40;1.30;;;;;;;;;;5062669;28;20396;-71
2022/11/04 04:59:37;;;;;;;1.52;1.48;;;;;;;;;;5062353;28;20228;-71
2022/11/04 05:02:03;;;;;;;1.20;1.20;;;;;;;;;;5062319;28;20512;-71
2022/11/04 05:04:30;;;;;;;1.20;1.20;;;;;;;;;;5062179;28;20197;-71
2022/11/04 05:06:56;;;;;;;1.17;1.17;;;;;;;;;;5061627;28;20197;-71
2022/11/04 05:09:22;;;;;;;3.20;1.50;;;;;;;;;;5061946;28;20567;-71
2022/11/04 05:11:49;;;;;;;1.25;1.20;;;;;;;;;;5061984;28;20224;-71
2022/11/04 05:14:16;;;;;;;2.90;1.20;;;;;;;;;;5061935;28;20197;-71
2022/11/04 05:16:43;;;;;;;18.05;12.02;;;;;;;;;;5061952;28;20197;-71
2022/11/04 05:19:09;;;;;;;7.75;7.00;;;;;;;;;;5061626;28;20210;-71
2022/11/04 05:21:35;;;;;;;7.80;5.72;;;;;;;;;;5061913;28;20197;-72
2022/11/04 05:24:01;;;;;;;6.78;4.57;;;;;;;;;;5061906;28;20197;-71
2022/11/04 05:26:28;;;;;;;2.67;2.47;;;;;;;;;;5061754;28;20299;-71
2022/11/04 05:28:54;;;;;;;3.80;2.40;;;;;;;;;;5061527;28;20575;-71
2022/11/04 05:31:22;;;;;;;3.28;2.05;;;;;;;;;;5061945;28;20314;-71
2022/11/04 05:33:48;;;;;;;2.45;1.95;;;;;;;;;;5061728;28;20196;-71
2022/11/04 05:36:15;;;;;;;2.97;2.00;;;;;;;;;;5061865;28;20524;-71
2022/11/04 05:38:42;;;;;;;1.88;1.75;;;;;;;;;;5061633;28;20197;-71
2022/11/04 05:41:10;;;;;;;2.00;1.90;;;;;;;;;;5061674;28;20196;-71
2022/11/04 05:43:36;;;;;;;2.95;2.75;;;;;;;;;;5061500;28;20215;-71
2022/11/04 05:46:03;;;;;;;8.77;6.75;;;;;;;;;;5061532;28;20197;-71
2022/11/04 05:48:30;;;;;;;5.97;5.38;;;;;;;;;;5061378;28;20449;-71
2022/11/04 05:50:57;;;;;;;7.80;6.40;;;;;;;;;;5062023;28;20500;-71
2022/11/04 05:53:23;;;;;;;6.35;4.78;;;;;;;;;;5061244;28;20193;-72
2022/11/04 05:55:49;;;;;;;4.28;3.15;;;;;;;;;;5061341;28;20216;-72
2022/11/04 05:58:15;;;;;;;3.67;3.00;;;;;;;;;;5061196;28;20201;-72
2022/11/04 06:00:42;;;;;;;1.60;1.60;;;;;;;;;;5061358;28;20197;-72
2022/11/04 06:03:08;;;;;;;2.42;2.03;;;;;;;;;;5061269;28;20504;-72
2022/11/04 06:05:36;;;;;;;3.65;2.20;;;;;;;;;;5061409;28;20220;-72
2022/11/04 06:08:02;;;;;;;3.03;1.83;;;;;;;;;;5060738;28;20274;-72
2022/11/04 06:10:28;;;;;;;2.67;2.20;;;;;;;;;;5061031;28;20456;-72
2022/11/04 06:12:54;;;;;;;1.52;1.42;;;;;;;;;;5060860;28;20203;-72
2022/11/04 06:15:21;;;;;;;1.00;1.00;;;;;;;;;;5061505;28;20197;-64
2022/11/04 06:17:47;;;;;;;0.80;0.80;;;;;;;;;;5061719;28;20389;-63
2022/11/04 06:20:13;;;;;;;6.90;0.85;;;;;;;;;;5065667;28;20193;-64
2022/11/04 06:22:41;;;;;;;1.88;1.33;;;;;;;;;;5060591;28;20197;-62
2022/11/04 06:25:08;;;;;;;4.35;1.48;;;;;;;;;;5050599;28;20221;-62
2022/11/04 06:27:34;;;;;;;2.28;1.40;;;;;;;;;;5055197;28;20249;-62
2022/11/04 06:30:00;;;;;;;2.00;1.88;;;;;;;;;;5051490;28;20212;-62
2022/11/04 06:32:27;;;;;;;1.83;1.73;;;;;;;;;;5051467;28;20216;-61
2022/11/04 06:34:53;;;;;;;1.80;1.70;;;;;;;;;;5038885;28;20541;-61
2022/11/04 06:37:19;;;;;;;3.40;1.90;;;;;;;;;;5039747;28;20217;-62
2022/11/04 06:39:47;;;;;;;2.25;1.92;;;;;;;;;;5041914;28;20209;-62
2022/11/04 06:42:13;;;;;;;5.13;2.55;;;;;;;;;;5053989;28;20209;-63
2022/11/04 06:44:39;;;;;;;2.97;1.95;;;;;;;;;;5040979;28;20217;-62
2022/11/04 06:47:05;;;;;;;3.88;2.55;;;;;;;;;;5040687;28;20504;-62
2022/11/04 06:49:32;;;;;;;3.17;2.35;;;;;;;;;;5038248;28;20426;-61
2022/11/04 06:51:59;;;;;;;4.45;2.55;;;;;;;;;;5038811;28;20413;-61
2022/11/04 06:54:26;;;;;;;2.10;2.00;;;;;;;;;;5038419;28;20213;-62
2022/11/04 06:56:53;;;;;;;1.83;1.75;;;;;;;;;;5038176;28;20517;-62
2022/11/04 06:59:20;;;;;;;7.72;2.30;;;;;;;;;;5039892;28;20229;-61
2022/11/04 07:01:47;;;;;;;4.15;1.67;;;;;;;;;;5054153;28;20213;-60
2022/11/04 07:04:13;;;;;;;1.70;1.60;;;;;;;;;;5048312;28;20408;-61
2022/11/04 07:06:41;;;;;;;1.77;1.73;;;;;;;;;;5045106;28;20209;-62
2022/11/04 07:09:08;;;;;;;2.05;1.95;;;;;;;;;;5037079;28;20230;-62
2022/11/04 07:11:34;;;;;;;2.35;2.03;;;;;;;;;;5036642;28;20435;-61
2022/11/04 07:14:01;;;;;;;2.08;1.88;;;;;;;;;;5057018;28;20284;-61
2022/11/04 07:16:28;;;;;;;2.72;2.53;;;;;;;;;;5056070;28;20558;-61
2022/11/04 07:18:54;;;;;;;7.70;5.60;;;;;;;;;;5057041;28;20543;-61
2022/11/04 07:21:20;;;;;;;6.32;5.72;;;;;;;;;;5055765;28;20277;-62
2022/11/04 07:23:47;;;;;;;8.05;7.13;;;;;;;;;;5051924;28;20243;-61
2022/11/04 07:26:13;;;;;;;6.60;6.03;;;;;;;;;;5057961;28;20221;-61
2022/11/04 07:28:39;;;;;;;6.50;6.00;;;;;;;;;;5053404;28;20229;-61
2022/11/04 07:31:08;;;;;;;5.03;4.60;;;;;;;;;;5045093;28;20243;-61
2022/11/04 07:33:34;;;;;;;5.60;5.10;;;;;;;;;;5056357;28;20235;-62
2022/11/04 07:36:03;;;;;;;6.85;4.95;;;;;;;;;;5056612;28;20611;-62
2022/11/04 07:38:30;;;;;;;4.88;4.47;;;;;;;;;;5041500;28;20209;-61
2022/11/04 07:40:57;;;;;;;8.07;4.60;;;;;;;;;;5042857;28;20246;-61
2022/11/04 07:43:23;;;;;;;8.32;4.80;;;;;;;;;;5057525;28;20240;-62
2022/11/04 07:45:58;;;;;;;9.63;5.45;;;;;;;;;;5056667;28;20436;-61
2022/11/04 07:48:26;;;;;;;9.63;4.10;;;;;;;;;;5056726;28;20240;-61
2022/11/04 07:50:54;;;;;;;7.65;3.95;;;;;;;;;;5047990;28;20489;-62
2022/11/04 07:53:21;;;;;;;8.90;4.13;;;;;;;;;;5037217;28;20520;-61
2022/11/04 07:55:49;;;;;;;4.10;3.70;;;;;;;;;;5038741;28;20213;-62
2022/11/04 07:58:15;;;;;;;6.43;3.40;;;;;;;;;;5053921;28;20539;-62
2022/11/04 08:00:42;;;;;;;6.60;3.58;;;;;;;;;;5056290;28;20350;-63
2022/11/04 08:03:08;;;;;;;4.20;3.30;;;;;;;;;;5056696;28;20220;-60
2022/11/04 08:05:36;;;;;;;5.30;3.42;;;;;;;;;;5054942;28;20224;-60
2022/11/04 08:08:02;;;;;;;3.85;3.10;;;;;;;;;;5045825;28;20245;-61
2022/11/04 08:10:29;;;;;;;2.95;2.75;;;;;;;;;;5049551;28;20584;-60
2022/11/04 08:12:55;;;;;;;5.40;3.45;;;;;;;;;;5040129;28;20205;-61
2022/11/04 08:15:21;;;;;;;3.83;2.80;;;;;;;;;;5044103;28;20548;-62
2022/11/04 08:17:48;;;;;;;7.45;3.33;;;;;;;;;;5052373;28;20205;-62
2022/11/04 08:20:14;;;;;;;3.22;2.90;;;;;;;;;;5050431;28;20294;-62
2022/11/04 08:22:42;;;;;;;5.35;4.22;;;;;;;;;;5055410;28;20213;-62
2022/11/04 08:25:10;;;;;;;4.13;3.80;;;;;;;;;;5053034;28;20219;-62
2022/11/04 08:27:36;;;;;;;4.38;3.13;;;;;;;;;;5035772;28;20234;-62
2022/11/04 08:30:02;;;;;;;3.70;3.13;;;;;;;;;;5043129;28;20247;-62
2022/11/04 08:32:29;;;;;;;6.18;4.03;;;;;;;;;;5042199;28;20213;-61
2022/11/04 08:34:55;;;;;;;6.82;3.75;;;;;;;;;;5045456;28;20209;-62
2022/11/04 08:37:21;;;;;;;4.60;3.70;;;;;;;;;;5046677;28;20220;-62
2022/11/04 08:39:49;;;;;;;5.40;3.60;;;;;;;;;;5055195;28;20204;-62
2022/11/04 08:42:15;;;;;;;4.40;3.22;;;;;;;;;;5047448;28;20236;-63
2022/11/04 08:44:42;;;;;;;8.07;3.92;;;;;;;;;;5041499;28;20553;-62
2022/11/04 08:47:08;;;;;;;5.47;3.28;;;;;;;;;;5041448;28;20210;-63
2022/11/04 08:49:37;;;;;;;5.38;3.60;;;;;;;;;;5044484;28;20229;-62
2022/11/04 08:52:03;;;;;;;6.18;3.22;;;;;;;;;;5044978;28;20213;-63
2022/11/04 08:54:29;;;;;;;9.70;3.63;;;;;;;;;;5053140;28;20540;-63
2022/11/04 08:56:57;;;;;;;7.70;3.47;;;;;;;;;;5037372;28;20214;-62
2022/11/04 08:59:24;;;;;;;8.52;2.83;;;;;;;;;;5036887;28;20228;-63
2022/11/04 09:01:50;;;;;;;7.00;2.85;;;;;;;;;;5037054;28;20252;-63
2022/11/04 09:04:18;;;;;;;2.70;2.50;;;;;;;;;;5036126;28;20284;-65
2022/11/04 09:06:45;;;;;;;3.03;2.72;;;;;;;;;;5038308;28;20276;-63
2022/11/04 09:09:12;;;;;;;2.22;2.13;;;;;;;;;;5036049;28;20296;-64
2022/11/04 09:11:39;;;;;;;3.03;2.25;;;;;;;;;;5036591;28;20209;-64
2022/11/04 09:14:07;;;;;;;5.00;2.90;;;;;;;;;;5046695;28;20219;-63
2022/11/04 09:16:34;;;;;;;5.10;2.90;;;;;;;;;;5054770;28;20235;-63
2022/11/04 09:19:01;;;;;;;5.47;3.30;;;;;;;;;;5054732;28;20411;-62
2022/11/04 09:21:28;;;;;;;4.15;2.95;;;;;;;;;;5041981;28;20536;-63
2022/11/04 09:23:54;;;;;;;4.50;2.30;;;;;;;;;;5051267;28;20390;-63
2022/11/04 09:26:21;;;;;;;2.47;2.05;;;;;;;;;;5040573;28;20219;-63
2022/11/04 09:28:48;;;;;;;3.83;2.97;;;;;;;;;;5052835;28;20575;-62
2022/11/04 09:31:16;;;;;;;3.92;2.50;;;;;;;;;;5050315;28;20220;-63
2022/11/04 09:33:43;;;;;;;2.33;2.22;;;;;;;;;;5041688;28;20213;-63
2022/11/04 09:36:10;;;;;;;2.78;1.80;;;;;;;;;;5052432;28;20519;-64
2022/11/04 09:38:36;;;;;;;4.35;2.50;;;;;;;;;;5055923;28;20208;-64
2022/11/04 09:41:08;;;;;;;3.70;2.20;;;;;;;;;;5055508;28;20273;-64
2022/11/04 09:43:39;;;;;;;2.78;2.58;;;;;;;;;;5054627;28;20397;-62
2022/11/04 09:46:06;;;;;;;3.47;2.00;;;;;;;;;;5046661;28;20216;-62
2022/11/04 09:48:37;;;;;;;2.60;2.40;;;;;;;;;;5039138;28;20292;-63
2022/11/04 09:51:05;;;;;;;2.47;2.33;;;;;;;;;;5046143;28;20209;-64
2022/11/04 09:53:37;;;;;;;2.20;2.10;;;;;;;;;;5040606;28;20491;-64
2022/11/04 09:56:06;;;;;;;2.92;2.70;;;;;;;;;;5056111;28;20432;-62
2022/11/04 09:58:34;;;;;;;3.72;2.28;;;;;;;;;;5052045;28;20400;-62
2022/11/04 10:01:02;;;;;;;3.35;3.00;;;;;;;;;;5038988;28;20213;-62
2022/11/04 10:03:38;;;;;;;4.45;3.05;;;;;;;;;;5046368;28;20223;-63
2022/11/04 10:06:13;;;;;;;3.38;3.17;;;;;;;;;;5050069;28;20213;-62
2022/11/04 10:08:47;;;;;;;5.07;2.60;;;;;;;;;;5039989;28;20528;-62
2022/11/04 10:11:16;;;;;;;4.50;2.97;;;;;;;;;;5039159;28;20212;-62
2022/11/04 10:13:49;;;;;;;3.03;2.78;;;;;;;;;;5038896;28;20220;-62
2022/11/04 10:16:20;;;;;;;11.55;3.00;;;;;;;;;;5048535;28;20213;-62
2022/11/04 10:19:02;;;;;;;6.00;2.97;;;;;;;;;;5039081;28;20438;-61
2022/11/04 10:21:34;;;;;;;3.85;2.30;;;;;;;;;;5053706;28;20209;-62
2022/11/04 10:24:06;;;;;;;2.45;2.35;;;;;;;;;;5055302;28;20227;-62
2022/11/04 10:26:37;;;;;;;8.02;2.80;;;;;;;;;;5047747;28;20216;-62
2022/11/04 10:29:05;;;;;;;2.47;2.28;;;;;;;;;;5044518;28;20233;-62
2022/11/04 10:31:31;;;;;;;4.60;2.42;;;;;;;;;;5055706;28;20213;-61
2022/11/04 10:33:59;;;;;;;3.30;2.28;;;;;;;;;;5053960;28;20474;-63
2022/11/04 10:36:26;;;;;;;4.03;2.30;;;;;;;;;;5042644;28;20212;-62
2022/11/04 10:38:54;;;;;;;3.08;2.30;;;;;;;;;;5047997;28;20500;-62
2022/11/04 10:41:25;;;;;;;3.50;2.20;;;;;;;;;;5050357;28;20223;-62
2022/11/04 10:43:52;;;;;;;2.08;1.55;;;;;;;;;;5051528;28;20244;-63
2022/11/04 10:46:26;;;;;;;3.28;1.85;;;;;;;;;;5035638;28;20235;-63
2022/11/04 10:48:56;;;;;;;2.00;1.60;;;;;;;;;;5035727;28;20393;-62
2022/11/04 10:51:23;;;;;;;4.30;1.60;;;;;;;;;;5055516;28;20221;-63
2022/11/04 10:53:53;;;;;;;1.88;1.65;;;;;;;;;;5047410;28;20398;-62
2022/11/04 10:56:25;;;;;;;4.05;1.60;;;;;;;;;;5037977;28;20456;-63
2022/11/04 10:58:54;;;;;;;2.97;1.50;;;;;;;;;;5048146;28;20219;-62
2022/11/04 11:01:25;;;;;;;2.80;1.98;;;;;;;;;;5048914;28;20210;-62
2022/11/04 11:03:55;;;;;;;4.38;1.80;;;;;;;;;;5042251;28;20202;-62
2022/11/04 11:06:24;;;;;;;2.30;1.33;;;;;;;;;;5044122;28;20398;-62
2022/11/04 11:08:51;;;;;;;3.33;1.33;;;;;;;;;;5057230;28;20492;-62
2022/11/04 11:11:34;;;;;;;2.10;1.35;;;;;;;;;;5038960;28;20247;-63
2022/11/04 11:14:02;;;;;;;3.72;3.42;;;;;;;;;;5045994;28;20217;-63
2022/11/04 11:16:30;;;;;;;3.88;1.25;;;;;;;;;;5049456;28;20482;-63
2022/11/04 11:19:08;;;;;;;2.08;1.20;;;;;;;;;;5057764;28;20224;-63
2022/11/04 11:21:41;;;;;;;2.40;1.20;;;;;;;;;;5053976;28;20279;-63
2022/11/04 11:24:13;;;;;;;1.95;1.23;;;;;;;;;;5055881;28;20401;-65
2022/11/04 11:26:40;;;;;;;2.75;1.40;;;;;;;;;;5037255;28;20220;-65
2022/11/04 11:29:10;;;;;;;4.18;2.00;;;;;;;;;;5051209;28;20229;-65
2022/11/04 11:31:37;;;;;;;2.30;1.42;;;;;;;;;;5054007;28;20205;-65
2022/11/04 11:34:05;;;;;;;2.22;1.48;;;;;;;;;;5047896;28;20233;-65
2022/11/04 11:36:33;;;;;;;2.10;1.27;;;;;;;;;;5037129;28;20213;-65
2022/11/04 11:39:02;;;;;;;3.83;1.27;;;;;;;;;;5054643;28;20219;-65
2022/11/04 11:41:31;;;;;;;3.75;1.25;;;;;;;;;;5043970;28;20533;-63
2022/11/04 11:43:59;;;;;;;4.50;0.80;;;;;;;;;;5046046;28;20272;-63
2022/11/04 11:46:28;;;;;;;7.10;4.80;;;;;;;;;;5056063;28;20693;-63
2022/11/04 11:48:59;;;;;;;3.03;1.42;;;;;;;;;;5055568;28;20213;-63
2022/11/04 11:51:27;;;;;;;1.55;1.13;;;;;;;;;;5056100;28;20236;-63
2022/11/04 11:54:12;;;;;;;1.85;0.90;;;;;;;;;;5039363;28;20503;-63
2022/11/04 11:56:42;;;;;;;3.53;1.08;;;;;;;;;;5036379;28;20297;-63
2022/11/04 11:59:17;;;;;;;3.83;0.90;;;;;;;;;;5045152;28;20558;-63
2022/11/04 12:01:49;;;;;;;5.18;1.27;;;;;;;;;;5037376;28;20217;-63
2022/11/04 12:04:16;;;;;;;2.20;1.17;;;;;;;;;;5036583;28;20213;-63
2022/11/04 12:06:47;;;;;;;4.40;1.17;;;;;;;;;;5048392;28;20205;-63
2022/11/04 12:09:19;;;;;;;5.30;0.95;;;;;;;;;;5052412;28;20735;-64
2022/11/04 12:11:52;;;;;;;6.65;1.13;;;;;;;;;;5037801;28;20412;-63
2022/11/04 12:14:22;;;;;;;4.03;1.00;;;;;;;;;;5034425;28;20213;-62
2022/11/04 12:16:54;;;;;;;3.13;0.95;;;;;;;;;;5049788;28;20216;-63
2022/11/04 12:19:36;;;;;;;2.20;1.10;;;;;;;;;;5055558;28;20221;-65
2022/11/04 12:22:07;;;;;;;1.35;0.82;;;;;;;;;;5048919;28;20220;-65
2022/11/04 12:24:38;;;;;;;5.50;2.85;;;;;;;;;;5038443;28;20217;-62
2022/11/04 12:27:07;;;;;;;2.78;0.95;;;;;;;;;;5056580;28;20287;-63
2022/11/04 12:29:40;;;;;;;2.90;1.20;;;;;;;;;;5054569;28;20213;-63
2022/11/04 12:32:13;;;;;;;2.55;1.08;;;;;;;;;;5056113;28;20217;-62
2022/11/04 12:34:46;;;;;;;3.80;1.90;;;;;;;;;;5042114;28;20280;-65
2022/11/04 12:37:19;;;;;;;4.28;1.23;;;;;;;;;;5047980;28;20213;-65
2022/11/04 12:39:56;;;;;;;4.53;1.42;;;;;;;;;;5042790;28;20209;-65
2022/11/04 12:42:25;;;;;;;3.65;1.25;;;;;;;;;;5046103;28;20205;-62
2022/11/04 12:44:56;;;;;;;3.30;1.27;;;;;;;;;;5046971;28;20217;-66
2022/11/04 12:47:29;;;;;;;5.57;1.85;;;;;;;;;;5042634;28;20209;-65
2022/11/04 12:50:08;;;;;;;9.20;5.50;;;;;;;;;;5054925;28;20228;-64
2022/11/04 12:52:40;;;;;;;3.88;0.90;;;;;;;;;;5042113;28;20213;-64
2022/11/04 12:55:17;;;;;;;6.35;2.10;;;;;;;;;;5038307;28;20209;-65
2022/11/04 12:57:48;;;;;;;5.38;1.67;;;;;;;;;;5038721;28;20217;-65
2022/11/04 13:00:16;;;;;;;3.03;1.77;;;;;;;;;;5038501;28;20277;-64
2022/11/04 13:02:48;;;;;;;3.88;1.60;;;;;;;;;;5038934;28;20216;-64
2022/11/04 13:05:32;;;;;;;3.50;1.10;;;;;;;;;;5052965;28;20222;-66
2022/11/04 13:08:03;;;;;;;1.95;1.00;;;;;;;;;;5031829;28;20217;-67
2022/11/04 13:10:33;;;;;;;2.97;1.20;;;;;;;;;;5041514;28;20232;-64
2022/11/04 13:13:01;;;;;;;6.40;2.72;;;;;;;;;;5044087;28;20427;-64
2022/11/04 13:15:28;;;;;;;10.13;5.30;;;;;;;;;;5043285;28;20206;-67
2022/11/04 13:17:58;;;;;;;5.72;3.58;;;;;;;;;;5057395;28;20212;-64
2022/11/04 13:20:26;;;;;;;5.43;1.67;;;;;;;;;;5041547;28;20219;-65
2022/11/04 13:22:53;;;;;;;6.13;1.27;;;;;;;;;;5039496;28;20579;-64
2022/11/04 13:25:22;;;;;;;5.22;2.65;;;;;;;;;;5039028;28;20419;-64
2022/11/04 13:27:49;;;;;;;3.72;1.23;;;;;;;;;;5049900;28;20236;-64
2022/11/04 13:30:20;;;;;;;3.45;1.85;;;;;;;;;;5046734;28;20568;-64
2022/11/04 13:32:49;;;;;;;3.35;1.65;;;;;;;;;;5058291;28;20378;-64
2022/11/04 13:35:19;;;;;;;4.22;1.30;;;;;;;;;;5050988;28;20430;-64
2022/11/04 13:37:48;;;;;;;2.20;1.27;;;;;;;;;;5044458;28;20201;-64
2022/11/04 13:40:17;;;;;;;2.75;0.90;;;;;;;;;;5043283;28;20232;-64
2022/11/04 13:42:54;;;;;;;2.15;1.02;;;;;;;;;;5049373;28;20205;-64
2022/11/04 13:45:20;;;;;;;2.50;0.90;;;;;;;;;;5055827;28;20407;-64
2022/11/04 13:47:52;;;;;;;2.10;1.13;;;;;;;;;;5059137;28;20215;-64
2022/11/04 13:50:31;;;;;;;4.85;1.45;;;;;;;;;;5038706;28;20221;-65
2022/11/04 13:52:58;;;;;;;2.45;0.98;;;;;;;;;;5050248;28;20267;-62
2022/11/04 13:55:24;;;;;;;3.90;1.10;;;;;;;;;;5054335;28;20213;-62
2022/11/04 13:57:52;;;;;;;2.63;1.30;;;;;;;;;;5054534;28;20213;-61
2022/11/04 14:00:21;;;;;;;2.88;1.00;;;;;;;;;;5050861;28;20228;-60
2022/11/04 14:02:48;;;;;;;2.53;1.00;;;;;;;;;;5036458;28;20451;-61
2022/11/04 14:05:35;;;;;;;3.67;1.10;;;;;;;;;;5037621;28;20264;-63
2022/11/04 14:08:10;;;;;;;5.15;1.33;;;;;;;;;;5033207;28;20607;-61
2022/11/04 14:10:37;;;;;;;2.17;1.10;;;;;;;;;;5052155;28;20454;-61
2022/11/04 14:13:19;;;;;;;2.28;1.10;;;;;;;;;;5052980;28;20295;-61
2022/11/04 14:15:58;;;;;;;4.28;1.35;;;;;;;;;;5049238;28;20209;-62
2022/11/04 14:18:29;;;;;;;4.35;1.48;;;;;;;;;;5052452;28;20520;-63
2022/11/04 14:21:02;;;;;;;3.28;1.30;;;;;;;;;;5053142;28;20212;-61
2022/11/04 14:23:30;;;;;;;4.07;1.15;;;;;;;;;;5051066;28;20209;-62
2022/11/04 14:26:00;;;;;;;2.95;1.10;;;;;;;;;;5047015;28;20213;-61
2022/11/04 14:28:28;;;;;;;4.57;0.93;;;;;;;;;;5053511;28;20221;-62
2022/11/04 14:30:56;;;;;;;1.67;1.00;;;;;;;;;;5041280;28;20229;-61
2022/11/04 14:33:33;;;;;;;4.78;1.50;;;;;;;;;;5040338;28;20224;-61
2022/11/04 14:36:14;;;;;;;1.67;1.02;;;;;;;;;;5044407;28;20450;-60
2022/11/04 14:38:42;;;;;;;5.85;2.63;;;;;;;;;;5045459;28;20389;-62
2022/11/04 14:41:13;;;;;;;2.97;1.40;;;;;;;;;;5054280;28;20223;-62
2022/11/04 14:43:41;;;;;;;5.22;1.50;;;;;;;;;;5045427;28;20404;-61
2022/11/04 14:46:08;;;;;;;5.05;1.10;;;;;;;;;;5057470;28;20209;-61
2022/11/04 14:48:34;;;;;;;7.45;1.48;;;;;;;;;;5054580;28;20219;-61
2022/11/04 14:51:00;;;;;;;4.88;1.48;;;;;;;;;;5053695;28;20406;-61
2022/11/04 14:53:30;;;;;;;2.65;1.48;;;;;;;;;;5051640;28;20215;-62
2022/11/04 14:56:05;;;;;;;1.92;1.42;;;;;;;;;;5056456;28;20221;-62
2022/11/04 14:58:32;;;;;;;2.03;1.60;;;;;;;;;;5057275;28;20204;-63
2022/11/04 15:00:59;;;;;;;6.10;1.35;;;;;;;;;;5057419;28;20660;-62
2022/11/04 15:03:26;;;;;;;3.90;2.10;;;;;;;;;;5046170;28;20432;-61
2022/11/04 15:05:57;;;;;;;4.68;1.70;;;;;;;;;;5039416;28;20228;-62
2022/11/04 15:08:33;;;;;;;7.40;2.47;;;;;;;;;;5037607;28;20213;-62
2022/11/04 15:11:11;;;;;;;4.70;2.33;;;;;;;;;;5037683;28;20559;-62
2022/11/04 15:13:38;;;;;;;5.22;2.17;;;;;;;;;;5043332;28;20220;-61
2022/11/04 15:16:08;;;;;;;5.30;1.60;;;;;;;;;;5053935;28;20220;-61
2022/11/04 15:18:36;;;;;;;5.47;2.05;;;;;;;;;;5046261;28;20221;-62
2022/11/04 15:21:04;;;;;;;6.63;1.70;;;;;;;;;;5037233;28;20216;-62
2022/11/04 15:23:31;;;;;;;7.63;2.38;;;;;;;;;;5037032;28;20209;-62
2022/11/04 15:25:58;;;;;;;7.88;2.38;;;;;;;;;;5037592;28;20229;-62